MST,Max TemperatureF,Mean TemperatureF,Min TemperatureF,Max Dew PointF,MeanDew PointF,Min DewpointF,Max Humidity, Mean Humidity, Min Humidity, Max Sea Level PressureIn, Mean Sea Level PressureIn, Min Sea Level PressureIn, Max VisibilityMiles, Mean VisibilityMiles, Min VisibilityMiles, Max Wind SpeedMPH, Mean Wind SpeedMPH, Max Gust SpeedMPH,PrecipitationIn, CloudCover, Events, WindDirDegrees
2012-12-1,53,42,30,30,26,19,70,53,35,30.11,30.08,30.04,10,10,10,24,8,24,0.00,3,,312
2012-12-2,55,39,23,28,21,16,86,53,26,30.10,29.98,29.85,10,10,10,16,6,25,0.00,1,,131
2012-12-3,46,32,19,32,23,12,93,79,53,30.33,30.17,29.87,10,8,0,30,10,43,0.00,3,,200
2012-12-4,41,28,15,25,17,10,86,66,49,30.41,30.36,30.31,10,10,10,15,9,,0.00,2,,94
2012-12-5,44,34,24,28,24,18,75,62,46,30.30,30.14,30.05,10,10,10,13,7,,0.00,5,,113
2012-12-6,42,36,33,34,31,27,93,81,61,30.09,30.06,29.96,10,10,10,6,2,,0.00,8,,199
2012-12-7,,,,,,,,,,,,,,,,,,,,,,
2012-12-8,,,,,,,,,,,,,,,,,,,,,,
2012-12-9,,,,,,,,,,,,,,,,,,,,,,
2012-12-10,,,,,,,,,,,,,,,,,,,,,,
2012-12-11,,,,,,,,,,,,,,,,,,,,,,
2012-12-12,35,30,24,18,16,14,69,58,44,29.95,29.92,29.87,10,10,10,8,6,,0.00,0,,88
2012-12-13,39,30,21,21,17,12,74,65,45,30.01,29.95,29.89,10,10,10,17,9,,0.00,0,,108
2012-12-14,35,28,21,27,20,12,93,73,56,29.89,29.69,29.53,10,9,2,18,11,,0.00,3,,108
2012-12-15,33,28,24,27,24,21,93,81,64,29.79,29.75,29.74,10,7,0,14,4,,0.00,7,,14
2012-12-16,28,24,21,21,19,14,93,82,64,29.88,29.80,29.73,10,7,1,24,5,26,0.00,6,,310
2012-12-17,37,30,24,25,20,14,93,67,56,29.86,29.75,29.65,10,9,1,22,11,31,0.00,6,,275
2012-12-18,26,22,17,23,19,14,93,89,80,29.80,29.71,29.59,3,1,0,20,9,30,0.00,8,,267
2012-12-19,17,6,-7,14,5,-15,93,74,58,30.29,29.87,29.58,10,7,1,21,10,23,0.00,4,,257
2012-12-20,12,2,-7,1,-7,-15,92,69,52,30.43,30.36,30.31,10,10,3,17,13,,0.00,0,,120
2012-12-21,21,11,1,10,1,-6,92,72,61,30.33,30.23,30.16,10,10,10,16,11,,0.00,0,,129
2012-12-22,21,8,-4,10,3,-9,100,75,58,30.19,30.09,30.00,10,10,10,21,8,18,0.00,0,,122
2012-12-23,24,14,3,18,11,-2,93,81,73,30.12,30.02,29.92,10,9,1,13,6,,0.00,5,,116
2012-12-24,28,24,19,27,22,14,93,89,80,29.92,29.75,29.65,10,4,0,20,6,26,0.01,7,,141
2012-12-25,21,11,1,19,7,-4,93,84,72,30.12,30.01,29.77,10,8,1,22,12,29,0.00,2,,223
2012-12-26,17,11,5,16,8,0,93,82,72,29.97,29.73,29.61,10,7,1,18,9,,0.00,4,,119
2012-12-27,19,14,8,16,14,1,93,88,73,29.89,29.72,29.63,10,5,1,12,5,,0.00,6,,288
2012-12-28,15,10,1,10,6,-6,100,86,72,30.18,30.04,29.89,10,6,0,8,1,,0.00,3,,142
2012-12-29,12,6,0,7,-1,-11,92,76,60,30.21,30.12,30.00,10,10,10,17,10,,0.00,0,,125
2012-12-30,10,2,-7,3,-2,-15,92,77,61,30.01,29.94,29.88,10,10,2,16,9,,0.00,1,,123
2012-12-31,10,3,-4,7,2,-9,100,84,72,30.04,29.94,29.85,10,6,2,9,2,,0.00,3,,222